Oregon State Flying Club

The Oregon State Flying Club is a non-profit organization committed to providing safe and inexpensive flying to the Oregon State University and Linn-Benton Community College communities. The Club currently owns three aircraft based at the Corvallis Airport for training, travel, and recreational purposes. Founded in 1952 and incorporated in 1956 the OSFC is one of the oldest continuously active flying clubs in the United States.

News & Announcements

Monthly Board Meeting

Next Meeting: Wednesday, August 10, 6pm, @ CVO

Current METAR KCVO

Raw METAR:  KCVO 261155Z 31008KT 10SM 14/12 A3013 RMK AO1 10170 20140 52003

This is a report for Corvallis Municipal Automatic Weather Observing / Reporting System, United States. The report was made 12 minutes ago, at 11:55 UTC. The wind was blowing at a speed of 9.2 miles per hour (4.1 meters per second) from northwest (310°). The temperature was 57 °F (14 °C), with a dew-point at 54 °F (12 °C). The atmospheric pressure was 30.13 inHg (1020 hPa). The relative humidity was 87.7%. The overall visibility was 10.0 miles (16.1 kilometers).